Time;durP1;ratioP1;P1;durP2;ratioP2;P2;SDS_P1;SDS_P2;PMS_P1;PMS_P2;Temp;Humidity;BMP_temperature;BMP_pressure;BME280_temperature;BME280_humidity;BME280_pressure;Samples;Min_cycle;Max_cycle;Signal;HPM_P1;HPM_P2
2023/04/23 00:00:39;;;;;;;;;3.20;1.00;;;;;16.20;75.52;100204.09;5044055;28;45743;-57
2023/04/23 00:03:11;;;;;;;;;2.00;2.00;;;;;16.18;76.31;100203.53;5053704;28;45271;-57
2023/04/23 00:05:37;;;;;;;;;1.80;1.80;;;;;16.13;75.49;100196.84;5052206;28;45342;-58
2023/04/23 00:08:03;;;;;;;;;2.60;1.80;;;;;16.12;75.51;100200.72;5086944;27;45330;-56
2023/04/23 00:10:29;;;;;;;;;2.00;2.00;;;;;16.11;75.77;100199.06;5053711;28;45966;-57
2023/04/23 00:12:54;;;;;;;;;2.00;2.00;;;;;16.10;76.18;100200.16;5051960;28;45446;-58
2023/04/23 00:15:21;;;;;;;;;4.25;2.75;;;;;16.04;76.04;100203.97;5054580;28;45356;-57
2023/04/23 00:17:47;;;;;;;;;2.40;1.40;;;;;16.09;76.24;100214.25;5017856;28;45505;-58
2023/04/23 00:20:13;;;;;;;;;5.20;2.60;;;;;16.09;76.39;100220.63;4954423;28;47035;-58
2023/04/23 00:22:39;;;;;;;;;2.20;1.00;;;;;16.06;76.57;100215.59;4954801;28;45413;-57
2023/04/23 00:25:05;;;;;;;;;3.00;1.00;;;;;16.08;77.05;100215.34;4953343;28;45448;-58
2023/04/23 00:27:30;;;;;;;;;2.00;2.00;;;;;16.07;76.57;100206.19;4955002;28;45522;-57
2023/04/23 00:29:56;;;;;;;;;1.00;1.00;;;;;16.09;77.38;100217.03;4954500;28;45503;-57
2023/04/23 00:32:21;;;;;;;;;1.50;1.50;;;;;16.05;76.16;100210.31;4954545;28;45496;-56
2023/04/23 00:34:50;;;;;;;;;2.00;2.00;;;;;16.03;76.36;100215.28;4954827;28;45526;-58
2023/04/23 00:37:16;;;;;;;;;2.20;1.20;;;;;16.01;77.34;100200.91;4954929;28;45638;-59
2023/04/23 00:39:41;;;;;;;;;2.50;2.00;;;;;16.04;77.65;100209.50;4954642;28;46403;-58
2023/04/23 00:42:11;;;;;;;;;3.75;2.00;;;;;16.04;76.91;100208.66;4954329;28;45375;-58
2023/04/23 00:44:40;;;;;;;;;2.60;1.60;;;;;16.03;77.50;100210.59;4953320;28;45432;-58
2023/04/23 00:47:06;;;;;;;;;5.20;2.20;;;;;15.91;76.43;100210.72;4954476;28;45341;-57
2023/04/23 00:49:35;;;;;;;;;1.00;1.00;;;;;15.94;77.45;100209.38;4954284;28;45389;-56
2023/04/23 00:52:01;;;;;;;;;2.00;2.00;;;;;15.90;75.84;100209.03;4954062;28;45493;-58
2023/04/23 00:54:27;;;;;;;;;1.00;1.00;;;;;15.91;77.50;100201.59;4954481;28;45443;-58
2023/04/23 00:56:53;;;;;;;;;2.25;2.25;;;;;15.88;76.31;100199.34;4954580;28;45496;-58
2023/04/23 00:59:19;;;;;;;;;2.00;2.00;;;;;15.88;76.82;100199.34;4937053;28;45438;-58
2023/04/23 01:01:44;;;;;;;;;3.00;1.75;;;;;15.83;77.24;100197.34;4952998;28;45424;-59
2023/04/23 01:04:11;;;;;;;;;3.50;3.50;;;;;15.80;77.53;100192.34;4954302;28;45259;-59
2023/04/23 01:06:37;;;;;;;;;2.20;1.80;;;;;15.84;78.37;100190.72;4914578;28;45596;-56
2023/04/23 01:09:03;;;;;;;;;3.75;3.25;;;;;15.78;74.75;100189.00;4953992;28;46601;-58
2023/04/23 01:11:28;;;;;;;;;3.60;2.00;;;;;15.71;76.91;100186.44;4954120;28;45317;-57
2023/04/23 01:13:55;;;;;;;;;3.75;2.50;;;;;15.73;77.94;100178.72;4954489;28;45315;-58
2023/04/23 01:16:20;;;;;;;;;2.00;2.00;;;;;15.73;78.25;100181.47;4952717;28;45510;-58
2023/04/23 01:18:46;;;;;;;;;2.50;2.00;;;;;15.67;76.69;100177.84;5014703;28;46564;-57
2023/04/23 01:21:11;;;;;;;;;1.25;1.25;;;;;15.63;76.77;100167.56;5056010;28;45498;-59
2023/04/23 01:23:37;;;;;;;;;2.00;2.00;;;;;15.63;78.35;100173.09;5056193;28;45372;-58
2023/04/23 01:26:03;;;;;;;;;4.00;3.00;;;;;15.59;77.01;100170.81;5055944;28;45879;-58
2023/04/23 01:28:29;;;;;;;;;6.00;3.00;;;;;15.56;78.09;100165.81;5071369;27;47473;-55
2023/04/23 01:30:54;;;;;;;;;3.50;3.00;;;;;15.52;77.37;100170.19;5055827;28;45451;-56
2023/04/23 01:33:20;;;;;;;;;3.00;3.00;;;;;15.51;77.29;100168.53;5054588;28;45463;-56
2023/04/23 01:35:46;;;;;;;;;2.50;2.00;;;;;15.53;78.44;100160.81;5037826;28;45429;-58
2023/04/23 01:38:11;;;;;;;;;3.20;3.00;;;;;15.52;78.05;100164.66;5037714;28;46655;-57
2023/04/23 01:40:37;;;;;;;;;1.00;1.00;;;;;15.55;78.19;100177.13;5070829;28;45799;-58
2023/04/23 01:43:03;;;;;;;;;3.00;2.00;;;;;15.50;78.14;100166.88;5055743;28;45278;-57
2023/04/23 01:45:29;;;;;;;;;3.40;2.20;;;;;15.51;77.55;100160.22;5055899;28;45568;-58
2023/04/23 01:47:55;;;;;;;;;4.20;2.00;;;;;15.48;77.92;100162.69;5055837;28;45937;-58
2023/04/23 01:50:23;;;;;;;;;2.00;2.00;;;;;15.48;78.23;100162.69;5056066;28;45314;-58
2023/04/23 01:52:49;;;;;;;;;4.00;1.60;;;;;15.48;78.35;100152.44;5054314;28;45433;-56
2023/04/23 01:55:14;;;;;;;;;3.50;2.00;;;;;15.45;77.82;100147.44;5055951;28;45387;-58
2023/04/23 01:57:40;;;;;;;;;2.75;2.25;;;;;15.39;69.60;100154.00;5055290;28;45729;-57
2023/04/23 02:00:10;;;;;;;;;6.00;3.00;;;;;15.21;75.26;100139.41;5053938;28;45342;-58
2023/04/23 02:02:36;;;;;;;;;3.00;3.00;;;;;15.20;77.81;100142.47;5055553;28;45525;-58
2023/04/23 02:05:05;;;;;;;;;6.00;2.50;;;;;15.18;77.69;100145.47;5088287;27;45348;-58
2023/04/23 02:07:31;;;;;;;;;3.60;2.00;;;;;15.23;78.65;100142.78;5055319;28;46746;-57
2023/04/23 02:09:57;;;;;;;;;6.00;5.60;;;;;15.21;78.62;100144.13;4984388;28;45343;-57
2023/04/23 02:12:22;;;;;;;;;3.75;3.75;;;;;15.14;77.88;100141.53;5001357;28;45291;-58
2023/04/23 02:14:48;;;;;;;;;4.00;4.00;;;;;15.09;77.60;100147.03;5002885;28;45391;-58
2023/04/23 02:17:13;;;;;;;;;3.75;2.75;;;;;15.07;76.63;100149.19;4972217;28;45495;-58
2023/04/23 02:19:39;;;;;;;;;4.25;4.00;;;;;15.12;78.05;100150.09;4953968;28;45255;-58
2023/04/23 02:22:06;;;;;;;;;2.00;2.00;;;;;15.16;77.87;100151.25;4951857;28;45255;-58
2023/04/23 02:24:31;;;;;;;;;4.20;4.20;;;;;15.10;75.90;100145.94;4953615;28;45374;-58
2023/04/23 02:26:57;;;;;;;;;3.25;3.00;;;;;15.03;75.87;100146.94;4952013;28;46429;-58
2023/04/23 02:29:23;;;;;;;;;2.50;2.50;;;;;14.96;77.57;100143.53;4935963;28;45433;-58
2023/04/23 02:31:48;;;;;;;;;4.00;4.00;;;;;14.95;76.50;100144.66;4953197;28;45429;-56
2023/04/23 02:34:14;;;;;;;;;3.50;2.75;;;;;14.96;76.88;100151.00;4951989;28;45676;-57
2023/04/23 02:36:39;;;;;;;;;5.00;3.00;;;;;14.98;77.40;100144.13;4952581;28;45482;-57
2023/04/23 02:39:05;;;;;;;;;3.25;3.25;;;;;14.97;77.24;100141.59;4952459;28;45235;-58
2023/04/23 02:41:30;;;;;;;;;4.25;3.50;;;;;14.89;76.49;100137.38;4953239;28;45295;-58
2023/04/23 02:43:56;;;;;;;;;4.75;4.75;;;;;14.81;76.54;100137.78;4953180;28;45514;-58
2023/04/23 02:46:22;;;;;;;;;4.00;3.00;;;;;14.85;78.07;100131.53;4951401;28;47402;-58
2023/04/23 02:48:47;;;;;;;;;7.50;5.00;;;;;14.75;74.87;100118.41;4952833;28;45175;-57
2023/04/23 02:51:13;;;;;;;;;7.00;4.00;;;;;14.67;76.93;100132.59;4953248;28;45417;-57
2023/04/23 02:53:38;;;;;;;;;5.75;4.00;;;;;14.64;77.63;100119.31;4951762;28;45283;-57
2023/04/23 02:56:04;;;;;;;;;5.00;3.00;;;;;14.47;76.48;100100.03;4952278;28;46303;-55
2023/04/23 02:58:29;;;;;;;;;3.50;3.50;;;;;14.61;76.83;100125.34;4952933;28;45198;-58
2023/04/23 03:00:55;;;;;;;;;4.00;4.00;;;;;14.61;76.47;100133.63;4952992;28;45714;-61
2023/04/23 03:03:21;;;;;;;;;7.75;4.00;;;;;14.66;75.87;100124.59;4952807;28;45381;-58
2023/04/23 03:05:46;;;;;;;;;3.50;2.25;;;;;14.63;76.18;100128.69;4952560;28;46167;-59
2023/04/23 03:08:12;;;;;;;;;3.25;2.25;;;;;14.66;77.78;100122.66;4952522;28;45700;-59
2023/04/23 03:10:37;;;;;;;;;6.25;4.50;;;;;14.57;77.68;100119.50;4952970;28;45508;-60
2023/04/23 03:13:02;;;;;;;;;8.25;5.25;;;;;14.57;77.10;100124.19;4951060;28;45494;-58
2023/04/23 03:15:29;;;;;;;;;4.00;4.00;;;;;14.53;72.64;100115.59;4952430;28;45988;-59
2023/04/23 03:17:54;;;;;;;;;2.40;1.00;;;;;14.39;76.79;100109.56;4965085;28;45364;-58
2023/04/23 03:20:20;;;;;;;;;6.50;4.50;;;;;14.36;74.84;100104.56;5054041;28;45876;-60
2023/04/23 03:22:45;;;;;;;;;7.00;5.75;;;;;14.38;76.35;100099.63;5053051;28;45811;-58
2023/04/23 03:25:11;;;;;;;;;4.75;3.25;;;;;14.33;75.96;100100.38;5053944;28;46436;-60
2023/04/23 03:27:39;;;;;;;;;6.00;5.50;;;;;14.22;76.41;100090.28;5052784;28;45424;-58
2023/04/23 03:30:06;;;;;;;;;3.40;3.40;;;;;14.10;74.46;100090.38;5053939;28;45238;-58
2023/04/23 03:32:32;;;;;;;;;5.40;5.00;;;;;14.10;77.34;100091.19;5054254;28;45317;-58
2023/04/23 03:34:57;;;;;;;;;5.75;5.00;;;;;14.02;75.47;100097.13;5054066;28;46050;-58
2023/04/23 03:37:23;;;;;;;;;5.75;5.75;;;;;13.94;77.07;100095.63;5053864;28;45334;-58
2023/04/23 03:39:48;;;;;;;;;9.75;5.00;;;;;14.06;75.82;100101.06;5054548;28;45457;-57
2023/04/23 03:42:15;;;;;;;;;15.75;10.75;;;;;14.10;76.79;100093.13;5054360;28;45382;-58
2023/04/23 03:44:40;;;;;;;;;11.60;9.60;;;;;14.16;78.06;100094.03;5054150;28;46662;-58
2023/04/23 03:47:06;;;;;;;;;6.75;4.00;;;;;14.19;76.94;100094.38;5053871;28;45367;-58
2023/04/23 03:49:31;;;;;;;;;2.75;2.75;;;;;14.07;75.70;100105.50;5056395;28;45410;-58
2023/04/23 03:51:56;;;;;;;;;6.50;5.75;;;;;13.97;77.13;100091.53;5058182;28;45582;-58
2023/04/23 03:54:24;;;;;;;;;6.25;4.25;;;;;14.07;76.98;100086.19;5056996;28;45404;-58
2023/04/23 03:56:50;;;;;;;;;6.40;6.00;;;;;14.12;76.95;100088.19;5056368;28;45365;-58
2023/04/23 03:59:15;;;;;;;;;6.00;3.00;;;;;14.03;76.14;100084.19;5057510;28;45410;-59
2023/04/23 04:01:42;;;;;;;;;3.00;3.00;;;;;13.97;76.88;100083.25;5056145;28;45893;-59
2023/04/23 04:04:07;;;;;;;;;4.80;3.60;;;;;13.93;77.83;100085.69;5057789;28;45396;-58
2023/04/23 04:06:33;;;;;;;;;8.00;5.00;;;;;13.92;77.33;100086.75;5057481;28;45384;-59
2023/04/23 04:08:58;;;;;;;;;5.00;5.00;;;;;13.87;75.89;100089.44;5057691;28;45431;-58
2023/04/23 04:11:25;;;;;;;;;5.50;4.25;;;;;13.92;77.08;100084.00;5057221;28;45439;-58
2023/04/23 04:13:50;;;;;;;;;4.60;4.40;;;;;13.90;75.19;100068.78;5055542;28;46020;-58
2023/04/23 04:16:15;;;;;;;;;3.00;2.25;;;;;13.85;77.02;100075.06;5057405;28;45307;-59
2023/04/23 04:18:41;;;;;;;;;5.00;5.00;;;;;13.85;76.76;100071.47;5013209;28;45378;-58
2023/04/23 04:21:06;;;;;;;;;3.00;3.00;;;;;13.77;76.86;100070.78;4969993;28;45258;-58
2023/04/23 04:23:32;;;;;;;;;5.25;5.00;;;;;13.63;75.80;100059.25;4954506;28;45384;-59
2023/04/23 04:25:58;;;;;;;;;3.75;3.00;;;;;13.68;77.29;100064.84;4954703;28;45293;-58
2023/04/23 04:28:24;;;;;;;;;3.80;2.80;;;;;13.66;76.33;100060.69;4954536;28;45310;-59
2023/04/23 04:30:52;;;;;;;;;4.75;2.75;;;;;13.62;77.02;100070.53;4954833;28;45215;-59
2023/04/23 04:33:19;;;;;;;;;2.80;2.80;;;;;13.64;76.18;100065.59;4954439;28;46333;-59
2023/04/23 04:35:45;;;;;;;;;3.40;3.40;;;;;13.56;76.96;100058.59;4937121;28;45392;-58
2023/04/23 04:38:11;;;;;;;;;3.00;3.00;;;;;13.54;72.93;100060.75;4953335;28;45365;-58
2023/04/23 04:40:36;;;;;;;;;3.00;3.00;;;;;13.34;75.96;100066.69;4953401;28;45671;-58
2023/04/23 04:43:04;;;;;;;;;5.50;3.25;;;;;13.44;76.85;100061.34;4952830;28;46927;-59
2023/04/23 04:45:29;;;;;;;;;2.80;2.80;;;;;13.44;76.85;100053.09;4953415;28;45460;-59
2023/04/23 04:47:55;;;;;;;;;3.00;3.00;;;;;13.54;76.45;100056.06;4953274;28;45367;-58
2023/04/23 04:50:21;;;;;;;;;4.00;3.00;;;;;13.54;76.98;100044.19;4954735;28;45337;-58
2023/04/23 04:52:46;;;;;;;;;5.25;3.00;;;;;13.46;74.66;100039.94;4954040;28;46966;-59
2023/04/23 04:55:12;;;;;;;;;2.00;2.00;;;;;13.51;76.55;100036.44;4953285;28;45417;-58
2023/04/23 04:57:37;;;;;;;;;6.25;3.75;;;;;13.58;75.47;100036.25;4954576;28;45305;-59
2023/04/23 05:00:25;;;;;;;;;2.25;2.25;;;;;13.49;76.65;100020.13;4953816;28;45472;-59
2023/04/23 05:02:51;;;;;;;;;4.40;2.80;;;;;13.61;76.64;100028.31;4954469;28;45665;-58
2023/04/23 05:05:17;;;;;;;;;4.00;3.00;;;;;13.61;76.26;100033.03;5003482;28;45359;-58
2023/04/23 05:07:43;;;;;;;;;4.00;4.00;;;;;13.50;72.87;100015.47;5054154;28;45341;-58
2023/04/23 05:10:09;;;;;;;;;4.50;3.50;;;;;13.57;75.98;100031.84;5055432;28;45403;-58
2023/04/23 05:12:34;;;;;;;;;3.50;3.50;;;;;13.58;76.10;100030.75;5089220;27;46913;-60
2023/04/23 05:14:59;;;;;;;;;5.00;4.00;;;;;13.45;74.42;100027.19;5054691;28;45165;-60
2023/04/23 05:17:25;;;;;;;;;2.00;2.00;;;;;13.54;76.91;100024.91;5056170;28;45374;-60
2023/04/23 05:19:50;;;;;;;;;2.00;2.00;;;;;13.60;76.21;100031.34;4983218;28;45740;-60
2023/04/23 05:22:17;;;;;;;;;2.00;2.00;;;;;13.63;75.81;100033.59;4954129;28;45717;-61
2023/04/23 05:24:43;;;;;;;;;6.00;3.00;;;;;13.54;76.17;100020.22;4954030;28;45342;-60
2023/04/23 05:27:09;;;;;;;;;4.40;3.60;;;;;13.66;75.77;100035.88;4953045;28;45280;-60
2023/04/23 05:29:34;;;;;;;;;3.00;3.00;;;;;13.56;74.17;100020.00;4953309;28;45284;-61
2023/04/23 05:32:00;;;;;;;;;3.75;3.75;;;;;13.61;76.01;100024.75;4952258;28;46420;-60
2023/04/23 05:34:25;;;;;;;;;4.00;2.50;;;;;13.72;75.36;100034.84;4953761;28;45316;-60
2023/04/23 05:36:51;;;;;;;;;2.00;2.00;;;;;13.76;76.19;100033.28;4954361;28;45442;-60
2023/04/23 05:39:16;;;;;;;;;3.50;3.00;;;;;13.73;75.12;100016.38;4953946;28;45381;-60
2023/04/23 05:41:42;;;;;;;;;7.50;4.50;;;;;13.78;77.32;100027.50;4952338;28;46411;-60
2023/04/23 05:44:07;;;;;;;;;3.25;3.00;;;;;13.69;73.02;100008.63;4953504;28;45271;-60
2023/04/23 05:46:33;;;;;;;;;4.50;3.00;;;;;13.71;75.12;100016.63;4952627;28;45315;-60
2023/04/23 05:48:58;;;;;;;;;3.00;3.00;;;;;13.68;74.71;100011.63;4952780;28;45228;-60
2023/04/23 05:51:24;;;;;;;;;3.00;3.00;;;;;13.63;75.74;100014.31;4953468;28;46292;-62
2023/04/23 05:53:49;;;;;;;;;2.50;2.50;;;;;13.67;74.65;100009.97;4953732;28;45289;-59
2023/04/23 05:56:15;;;;;;;;;4.25;2.00;;;;;13.69;75.81;100014.16;4953614;28;45351;-60
2023/04/23 05:58:41;;;;;;;;;3.00;2.00;;;;;13.69;74.66;100014.16;4952467;28;46025;-59
2023/04/23 06:01:06;;;;;;;;;5.00;2.50;;;;;13.52;69.38;100011.38;4953504;28;45802;-59
2023/04/23 06:03:31;;;;;;;;;3.00;3.00;;;;;13.55;73.73;100010.88;4953558;28;45453;-58
2023/04/23 06:05:57;;;;;;;;;3.25;2.25;;;;;13.56;75.28;100014.47;4952616;28;45482;-59
2023/04/23 06:08:22;;;;;;;;;2.00;2.00;;;;;13.64;75.38;100007.69;4953423;28;45494;-59
2023/04/23 06:10:48;;;;;;;;;3.00;2.50;;;;;13.60;75.03;100004.59;4953725;28;45335;-59
2023/04/23 06:13:13;;;;;;;;;2.00;2.00;;;;;13.70;74.67;100012.22;4952120;28;45470;-59
2023/04/23 06:15:39;;;;;;;;;3.75;3.00;;;;;13.62;74.88;99996.09;4953597;28;45352;-61
2023/04/23 06:18:04;;;;;;;;;3.75;3.75;;;;;13.75;75.46;100011.44;4953752;28;45614;-59
2023/04/23 06:20:30;;;;;;;;;4.00;3.00;;;;;13.75;72.70;100012.31;5050754;28;47546;-59
2023/04/23 06:22:55;;;;;;;;;4.25;4.25;;;;;13.64;74.38;100003.03;5053676;28;45290;-59
2023/04/23 06:25:21;;;;;;;;;5.25;3.75;;;;;13.77;74.10;100012.06;5054633;28;45246;-60
2023/04/23 06:27:46;;;;;;;;;6.50;5.50;;;;;13.76;74.15;100016.72;5055769;28;45457;-60
2023/04/23 06:30:12;;;;;;;;;2.25;2.25;;;;;13.72;74.91;100003.69;5055371;28;45243;-59
2023/04/23 06:32:38;;;;;;;;;5.75;5.00;;;;;13.72;75.31;100004.50;5054928;28;45400;-60
2023/04/23 06:35:04;;;;;;;;;3.00;3.00;;;;;13.71;74.65;99994.56;5055463;28;45300;-60
2023/04/23 06:37:30;;;;;;;;;4.00;4.00;;;;;13.67;75.65;99988.72;5055420;28;45163;-60
2023/04/23 06:39:57;;;;;;;;;8.75;4.50;;;;;13.69;73.60;99980.22;5055356;28;46581;-60
2023/04/23 06:42:22;;;;;;;;;5.20;4.20;;;;;13.59;75.57;99966.25;5054933;28;45416;-59
2023/04/23 06:44:48;;;;;;;;;4.50;4.50;;;;;13.80;75.81;99993.09;5055387;28;45269;-59
2023/04/23 06:47:13;;;;;;;;;4.00;4.00;;;;;13.82;75.66;99996.41;5055583;28;45499;-62
2023/04/23 06:49:39;;;;;;;;;5.00;4.00;;;;;13.87;76.46;99990.13;5053151;28;48663;-58
2023/04/23 06:52:05;;;;;;;;;3.60;3.60;;;;;13.88;73.40;99993.75;5055175;28;45423;-59
2023/04/23 06:54:30;;;;;;;;;4.00;4.00;;;;;13.88;76.76;99983.53;5053270;28;45423;-59
2023/04/23 06:56:56;;;;;;;;;5.00;3.75;;;;;13.83;76.54;99983.47;5055067;28;45215;-59
2023/04/23 06:59:21;;;;;;;;;3.50;3.50;;;;;13.87;76.91;99987.38;5054508;28;45636;-59
2023/04/23 07:01:47;;;;;;;;;4.50;4.50;;;;;13.84;73.91;99987.91;5054441;28;45294;-59
2023/04/23 07:04:12;;;;;;;;;3.50;3.50;;;;;13.83;77.11;99991.75;5054992;28;45230;-58
2023/04/23 07:06:38;;;;;;;;;6.00;6.00;;;;;13.91;77.29;99988.56;5054928;28;45685;-58
2023/04/23 07:09:03;;;;;;;;;4.00;4.00;;;;;13.87;77.03;99954.28;5054807;28;45492;-58
2023/04/23 07:11:30;;;;;;;;;5.75;4.75;;;;;13.96;77.56;99974.84;5054884;28;45307;-60
2023/04/23 07:13:56;;;;;;;;;7.60;4.40;;;;;13.96;77.03;99980.34;5054664;28;45339;-58
2023/04/23 07:16:23;;;;;;;;;5.60;5.60;;;;;14.04;77.47;99969.97;5052908;28;45663;-58
2023/04/23 07:18:49;;;;;;;;;7.00;6.40;;;;;14.02;77.31;99975.75;5030072;28;46939;-59
2023/04/23 07:21:14;;;;;;;;;6.50;4.50;;;;;14.00;77.90;99968.81;4952900;28;45456;-58
2023/04/23 07:23:40;;;;;;;;;5.00;5.00;;;;;13.99;77.67;99965.22;4952167;28;45394;-59
2023/04/23 07:26:05;;;;;;;;;6.00;5.25;;;;;14.07;77.97;99963.94;4952775;28;45394;-59
2023/04/23 07:28:31;;;;;;;;;5.25;4.25;;;;;14.05;75.44;99955.91;4951616;28;45734;-59
2023/04/23 07:30:57;;;;;;;;;6.80;6.40;;;;;13.95;76.02;99955.78;4952890;28;45375;-59
2023/04/23 07:33:23;;;;;;;;;5.25;5.25;;;;;13.91;77.91;99958.22;4952754;28;45278;-60
2023/04/23 07:35:49;;;;;;;;;6.60;5.80;;;;;13.94;78.23;99948.59;4952772;28;45385;-59
2023/04/23 07:38:15;;;;;;;;;6.75;5.50;;;;;13.74;78.31;99905.84;4952642;28;45276;-60
2023/04/23 07:40:40;;;;;;;;;10.00;7.75;;;;;14.00;77.90;99939.31;4952297;28;45357;-59
2023/04/23 07:43:06;;;;;;;;;8.25;7.00;;;;;14.05;77.38;99941.28;4952773;28;45214;-59
2023/04/23 07:45:31;;;;;;;;;6.25;6.25;;;;;14.10;76.21;99942.19;4951638;28;45481;-59
2023/04/23 07:47:57;;;;;;;;;5.75;5.75;;;;;14.00;77.36;99931.03;4951739;28;46600;-59
2023/04/23 07:50:23;;;;;;;;;5.80;5.80;;;;;14.04;76.52;99940.44;4951924;28;45475;-59
2023/04/23 07:52:48;;;;;;;;;9.25;7.00;;;;;14.02;72.77;99953.66;4952322;28;45503;-59
2023/04/23 07:55:14;;;;;;;;;1.00;0.00;;;;;14.05;78.40;99947.63;4952642;28;45426;-59
2023/04/23 07:57:40;;;;;;;;;7.00;7.00;;;;;13.83;78.60;99909.00;4952086;28;46339;-59
2023/04/23 08:00:08;;;;;;;;;10.00;6.50;;;;;13.94;77.88;99932.84;4951939;28;45435;-60
2023/04/23 08:02:34;;;;;;;;;11.00;7.20;;;;;13.86;74.92;99919.50;4952463;28;45432;-60
2023/04/23 08:05:00;;;;;;;;;8.00;6.00;;;;;13.92;78.24;99912.13;4966795;28;45534;-61
2023/04/23 08:07:25;;;;;;;;;6.25;5.25;;;;;13.92;79.15;99890.91;4950950;28;48816;-60
2023/04/23 08:09:51;;;;;;;;;7.25;7.25;;;;;14.03;78.44;99902.91;4952327;28;45777;-61
2023/04/23 08:12:18;;;;;;;;;9.75;9.00;;;;;14.12;79.09;99897.78;4924422;28;45338;-59
2023/04/23 08:14:43;;;;;;;;;6.80;5.80;;;;;14.02;79.16;99862.63;4961323;28;45480;-59
2023/04/23 08:17:09;;;;;;;;;7.00;7.00;;;;;14.26;78.34;99895.50;4951589;28;46547;-59
2023/04/23 08:19:34;;;;;;;;;11.75;9.50;;;;;14.35;78.94;99877.38;5006276;28;45385;-59
2023/04/23 08:22:00;;;;;;;;;10.75;9.75;;;;;14.31;76.95;99870.69;5053398;28;45408;-58
2023/04/23 08:24:28;;;;;;;;;7.00;6.50;;;;;14.35;78.71;99857.19;5054059;28;45541;-58
2023/04/23 08:26:54;;;;;;;;;8.00;8.00;;;;;14.36;80.70;99845.09;5052088;28;45869;-58
2023/04/23 08:29:19;;;;;;;;;9.20;8.60;;;;;14.36;78.40;99834.03;5053354;28;45417;-60
2023/04/23 08:31:45;;;;;;;;;10.25;8.25;;;;;14.55;79.39;99822.63;5018417;28;45692;-59
2023/04/23 08:34:11;;;;;;;;;10.75;10.75;;;;;14.48;77.46;99809.84;4947898;28;45634;-60
2023/04/23 08:36:36;;;;;;;;;8.25;8.00;;;;;14.50;75.84;99806.84;4952200;28;45376;-60
2023/04/23 08:39:02;;;;;;;;;10.50;9.00;;;;;14.59;76.50;99823.78;4962154;28;45888;-60
2023/04/23 08:41:34;;;;;;;;;10.40;9.20;;;;;14.48;74.53;99829.19;4947097;28;45413;-57
2023/04/23 08:44:12;;;;;;;;;12.40;10.00;;;;;14.58;78.84;99805.53;4939235;28;46691;-60
2023/04/23 08:46:38;;;;;;;;;10.40;9.40;;;;;14.74;79.15;99796.31;4919208;28;46619;-60
2023/04/23 08:49:03;;;;;;;;;11.00;10.00;;;;;14.75;77.95;99795.25;4904783;28;45606;-60
2023/04/23 08:51:29;;;;;;;;;10.50;10.50;;;;;14.77;80.21;99770.94;4992578;28;45603;-59
2023/04/23 08:53:55;;;;;;;;;7.25;7.25;;;;;14.70;76.96;99767.53;4960979;28;45956;-61
2023/04/23 08:56:21;;;;;;;;;12.00;7.40;;;;;14.71;78.23;99766.44;5059863;27;46225;-60
2023/04/23 08:58:47;;;;;;;;;10.25;10.25;;;;;14.82;78.73;99758.25;4954140;28;45966;-60
2023/04/23 09:01:13;;;;;;;;;8.60;8.60;;;;;14.93;78.42;99759.19;4990934;28;45455;-63
2023/04/23 09:03:38;;;;;;;;;7.25;7.25;;;;;14.95;78.32;99760.59;4973040;28;45830;-61
2023/04/23 09:06:04;;;;;;;;;10.25;9.50;;;;;15.07;77.12;99743.81;4937279;28;48223;-61
2023/04/23 09:08:29;;;;;;;;;8.50;7.75;;;;;15.09;77.46;99738.03;4956549;28;45508;-61
2023/04/23 09:10:55;;;;;;;;;11.00;11.00;;;;;15.10;75.94;99731.41;4985287;28;45466;-59
2023/04/23 09:13:21;;;;;;;;;8.50;8.50;;;;;15.14;77.85;99708.47;4953282;28;45326;-62
2023/04/23 09:15:47;;;;;;;;;10.00;10.00;;;;;15.39;77.86;99715.25;4966094;28;46556;-61
2023/04/23 09:18:12;;;;;;;;;9.50;7.25;;;;;15.37;72.45;99700.84;4983555;28;45370;-61
2023/04/23 09:20:38;;;;;;;;;7.75;7.25;;;;;15.40;73.96;99710.53;5032939;28;45501;-60
2023/04/23 09:23:07;;;;;;;;;8.25;7.75;;;;;15.43;76.15;99710.00;4950900;28;45744;-60
2023/04/23 09:25:33;;;;;;;;;9.40;9.40;;;;;15.53;76.83;99700.91;4947015;28;45980;-60
2023/04/23 09:28:00;;;;;;;;;6.75;6.50;;;;;15.51;73.63;99687.34;4950907;28;45685;-61
2023/04/23 09:30:26;;;;;;;;;9.40;9.40;;;;;15.49;75.10;99684.03;5000565;28;46748;-61
2023/04/23 09:32:51;;;;;;;;;10.50;10.50;;;;;15.41;72.96;99679.84;4942190;28;45424;-62
2023/04/23 09:35:20;;;;;;;;;10.75;9.25;;;;;15.38;76.56;99682.31;4935233;28;46677;-60
2023/04/23 09:37:48;;;;;;;;;9.20;8.60;;;;;15.44;74.93;99676.53;4951506;28;45862;-60
2023/04/23 09:40:14;;;;;;;;;10.80;9.20;;;;;15.54;76.77;99667.44;4948831;28;45448;-61
2023/04/23 09:42:39;;;;;;;;;7.40;6.40;;;;;15.54;75.41;99672.97;4931528;28;45498;-60
2023/04/23 09:45:06;;;;;;;;;9.50;9.50;;;;;15.50;76.14;99669.09;4932355;28;46445;-61
2023/04/23 09:47:39;;;;;;;;;11.20;8.00;;;;;15.44;72.88;99665.47;4932563;28;45461;-61
2023/04/23 09:50:06;;;;;;;;;8.60;7.60;;;;;15.52;75.99;99660.56;4932265;28;45441;-60
2023/04/23 09:52:32;;;;;;;;;6.80;6.80;;;;;15.62;75.42;99654.22;4935798;28;45506;-60
2023/04/23 09:55:00;;;;;;;;;6.80;6.60;;;;;15.74;74.85;99656.72;4969985;28;46661;-61
2023/04/23 09:57:26;;;;;;;;;10.00;7.20;;;;;15.71;73.20;99666.41;4968457;28;45447;-60
2023/04/23 09:59:51;;;;;;;;;5.50;5.50;;;;;15.54;75.17;99659.16;4986126;28;45779;-61
2023/04/23 10:02:17;;;;;;;;;7.00;7.00;;;;;15.45;75.05;99645.03;5020369;28;45546;-61
2023/04/23 10:04:43;;;;;;;;;7.20;6.80;;;;;15.41;74.99;99635.63;5019146;27;46415;-61
2023/04/23 10:07:12;;;;;;;;;8.25;8.25;;;;;15.26;74.80;99622.56;4956910;28;45865;-61
2023/04/23 10:09:38;;;;;;;;;6.60;6.60;;;;;15.36;74.30;99635.59;4999074;28;45535;-61
2023/04/23 10:12:03;;;;;;;;;6.75;4.00;;;;;15.35;73.56;99622.88;4952230;28;45403;-62
2023/04/23 10:14:29;;;;;;;;;5.50;5.50;;;;;15.36;75.58;99629.25;4935339;28;47324;-60
2023/04/23 10:17:02;;;;;;;;;6.60;5.00;;;;;15.23;73.54;99625.03;4950593;28;45586;-61
2023/04/23 10:19:28;;;;;;;;;5.00;5.00;;;;;15.22;74.24;99624.22;4960160;28;45515;-59
2023/04/23 10:22:00;;;;;;;;;5.50;5.50;;;;;15.22;74.26;99612.31;4932616;28;45500;-60
2023/04/23 10:24:28;;;;;;;;;7.00;5.80;;;;;15.38;73.59;99607.69;4932119;28;45664;-60
2023/04/23 10:26:59;;;;;;;;;6.40;6.20;;;;;15.45;72.82;99594.44;5000324;27;45977;-61
2023/04/23 10:29:29;;;;;;;;;5.20;5.20;;;;;15.50;73.56;99591.69;5029447;28;45448;-60
2023/04/23 10:31:55;;;;;;;;;5.00;5.00;;;;;15.55;72.82;99588.09;4941247;28;45410;-61
2023/04/23 10:34:22;;;;;;;;;6.60;6.60;;;;;15.52;73.03;99561.81;4951955;28;45432;-60
2023/04/23 10:36:47;;;;;;;;;5.80;5.80;;;;;15.58;73.55;99582.84;4934472;28;45433;-61
2023/04/23 10:39:13;;;;;;;;;4.75;4.75;;;;;15.54;72.88;99573.44;4950831;28;45800;-61
2023/04/23 10:41:40;;;;;;;;;6.00;5.25;;;;;15.44;72.46;99570.66;4954879;28;45574;-61
2023/04/23 10:44:06;;;;;;;;;6.60;5.00;;;;;15.44;75.13;99562.38;4920272;28;45974;-59
2023/04/23 10:46:32;;;;;;;;;5.80;5.80;;;;;15.51;73.37;99549.09;4949675;28;45373;-60
2023/04/23 10:49:14;;;;;;;;;5.60;5.20;;;;;15.52;74.80;99542.47;4950510;28;45507;-61
2023/04/23 10:51:41;;;;;;;;;6.00;4.40;;;;;15.56;73.68;99554.66;4949781;28;45765;-60
2023/04/23 10:54:12;;;;;;;;;4.40;4.40;;;;;15.45;69.98;99541.91;4956325;28;47304;-61
2023/04/23 10:56:38;;;;;;;;;6.40;4.80;;;;;15.34;73.99;99521.69;4951555;28;45335;-62
2023/04/23 10:59:16;;;;;;;;;5.40;5.40;;;;;15.42;72.38;99514.81;4965554;28;45430;-61
2023/04/23 11:01:42;;;;;;;;;3.40;3.40;;;;;15.46;73.36;99521.44;4982965;28;45495;-61
2023/04/23 11:04:27;;;;;;;;;5.60;4.60;;;;;15.30;71.02;99510.38;4966112;28;45483;-61
2023/04/23 11:07:07;;;;;;;;;6.80;5.00;;;;;15.38;74.47;99505.41;4953908;28;45577;-61
2023/04/23 11:09:39;;;;;;;;;4.00;4.00;;;;;15.45;73.79;99489.38;4980024;28;45619;-62
2023/04/23 11:12:06;;;;;;;;;3.40;3.40;;;;;15.31;71.64;99466.94;5041457;28;45456;-62
2023/04/23 11:14:41;;;;;;;;;6.60;5.80;;;;;15.34;73.00;99488.53;4952595;28;45696;-61
2023/04/23 11:17:09;;;;;;;;;4.00;4.00;;;;;15.13;69.60;99466.41;4951294;28;45376;-62
2023/04/23 11:19:36;;;;;;;;;6.80;5.40;;;;;15.23;72.06;99476.63;4989735;28;45356;-61
2023/04/23 11:22:19;;;;;;;;;5.20;4.20;;;;;15.08;72.78;99460.84;5054014;28;45505;-61